createdAt,value
2022-08-05T00:00:19.495Z,24.73
2022-08-05T00:02:50.866Z,24.10
2022-08-05T00:06:01.903Z,24.38
2022-08-05T00:08:10.736Z,24.60
2022-08-05T00:11:00.595Z,24.73
2022-08-05T00:13:38.078Z,25.35
2022-08-05T00:16:09.173Z,24.60
2022-08-05T00:18:39.423Z,25.10
2022-08-05T00:21:08.565Z,25.48
2022-08-05T00:23:46.288Z,26.17
2022-08-05T00:26:23.171Z,27.00
2022-08-05T00:28:51.796Z,27.17
2022-08-05T00:31:41.292Z,26.27
2022-08-05T00:34:56.415Z,25.60
2022-08-05T00:37:09.859Z,25.58
2022-08-05T00:39:44.100Z,24.35
2022-08-05T00:42:31.904Z,25.17
2022-08-05T00:45:00.707Z,24.83
2022-08-05T00:47:53.105Z,25.27
2022-08-05T00:50:20.975Z,25.63
2022-08-05T00:52:49.444Z,26.10
2022-08-05T00:55:18.954Z,25.83
2022-08-05T00:57:58.595Z,26.13
2022-08-05T01:00:28.014Z,26.60
2022-08-05T01:02:57.282Z,27.40
2022-08-05T01:05:28.283Z,26.63
2022-08-05T01:08:40.147Z,26.83
2022-08-05T01:10:52.370Z,26.77
2022-08-05T01:13:27.210Z,27.15
2022-08-05T01:16:26.275Z,26.38
2022-08-05T01:19:01.009Z,26.20
2022-08-05T01:21:52.397Z,27.00
2022-08-05T01:24:42.883Z,26.25
2022-08-05T01:27:26.554Z,25.98
2022-08-05T01:30:02.630Z,24.70
2022-08-05T01:32:36.165Z,25.33
2022-08-05T01:35:12.374Z,24.50
2022-08-05T01:38:02.721Z,24.58
2022-08-05T01:40:32.580Z,24.85
2022-08-05T01:43:03.762Z,25.55
2022-08-05T01:45:34.978Z,24.77
2022-08-05T01:48:13.848Z,22.25
2022-08-05T01:50:50.970Z,20.95
2022-08-05T01:53:57.214Z,22.58
2022-08-05T01:58:12.660Z,22.65
2022-08-05T01:59:05.837Z,23.27
2022-08-05T02:01:39.987Z,24.08
2022-08-05T02:04:10.582Z,22.45
2022-08-05T02:06:39.277Z,22.38
2022-08-05T02:09:08.434Z,23.38
2022-08-05T02:11:47.735Z,23.20
2022-08-05T02:14:22.198Z,24.42
2022-08-05T02:16:53.500Z,24.48
2022-08-05T02:19:34.262Z,24.15
2022-08-05T02:22:10.553Z,23.85
2022-08-05T02:24:57.605Z,24.35
2022-08-05T02:27:59.349Z,24.90
2022-08-05T02:30:20.595Z,24.38
2022-08-05T02:32:55.351Z,24.13
2022-08-05T02:35:27.714Z,23.95
2022-08-05T02:38:00.286Z,24.42
2022-08-05T02:40:32.216Z,24.10
2022-08-05T02:43:01.691Z,24.33
2022-08-05T02:45:52.294Z,24.65
2022-08-05T02:48:29.104Z,23.50
2022-08-05T02:51:00.666Z,23.50
2022-08-05T02:53:35.930Z,22.85
2022-08-05T02:56:09.582Z,23.30
2022-08-05T02:58:45.158Z,24.80
2022-08-05T03:01:27.193Z,24.13
2022-08-05T03:04:02.801Z,24.38
2022-08-05T03:06:53.879Z,25.90
2022-08-05T03:09:37.565Z,25.08
2022-08-05T03:12:08.310Z,25.20
2022-08-05T03:14:45.685Z,22.80
2022-08-05T03:17:14.452Z,23.92
2022-08-05T03:19:45.744Z,24.55
2022-08-05T03:22:16.422Z,25.20
2022-08-05T03:24:50.780Z,25.20
2022-08-05T03:27:19.674Z,24.00
2022-08-05T03:30:06.907Z,25.38
2022-08-05T03:32:36.968Z,22.55
2022-08-05T03:35:08.907Z,23.98
2022-08-05T03:37:45.867Z,22.08
2022-08-05T03:40:31.053Z,22.02
2022-08-05T03:42:59.598Z,21.33
2022-08-05T03:45:58.339Z,19.55
2022-08-05T03:48:27.597Z,18.40
2022-08-05T03:52:48.778Z,20.25
2022-08-05T03:55:52.077Z,18.90
2022-08-05T03:56:51.787Z,20.02
2022-08-05T03:59:25.942Z,19.85
2022-08-05T04:01:59.799Z,20.45
2022-08-05T04:04:29.024Z,20.92
2022-08-05T04:07:00.330Z,21.55
2022-08-05T04:09:29.351Z,21.65
2022-08-05T04:11:58.456Z,22.08
2022-08-05T04:14:30.462Z,22.05
2022-08-05T04:17:02.143Z,23.42
2022-08-05T04:19:32.817Z,23.83
2022-08-05T04:22:10.081Z,22.70
2022-08-05T04:24:44.582Z,22.30
2022-08-05T04:27:41.858Z,23.35
2022-08-05T04:30:12.889Z,23.17
2022-08-05T04:32:42.367Z,24.35
2022-08-05T04:35:17.323Z,22.73
2022-08-05T04:38:02.304Z,21.58
2022-08-05T04:40:36.360Z,21.63
2022-08-05T04:43:05.209Z,22.52
2022-08-05T04:45:48.165Z,21.58
2022-08-05T04:48:27.205Z,21.60
2022-08-05T04:51:03.218Z,21.65
2022-08-05T04:53:40.218Z,20.23
2022-08-05T04:56:32.765Z,19.20
2022-08-05T04:58:57.312Z,19.00
2022-08-05T05:02:05.725Z,17.15
2022-08-05T05:04:13.977Z,17.45
2022-08-05T05:06:49.150Z,15.95
2022-08-05T05:09:22.070Z,14.50
2022-08-05T05:11:54.370Z,14.18
2022-08-05T05:14:28.035Z,14.60
2022-08-05T05:17:00.432Z,12.98
2022-08-05T05:19:37.001Z,13.18
2022-08-05T05:22:22.789Z,12.52
2022-08-05T05:24:58.006Z,13.15
2022-08-05T05:27:41.311Z,11.90
2022-08-05T05:30:30.576Z,11.93
2022-08-05T05:33:16.518Z,11.25
2022-08-05T05:35:47.520Z,12.63
2022-08-05T05:38:22.450Z,11.65
2022-08-05T05:40:57.251Z,10.02
2022-08-05T05:43:56.500Z,10.43
2022-08-05T05:46:17.798Z,11.52
2022-08-05T05:48:48.836Z,11.60
2022-08-05T05:51:24.463Z,8.90
2022-08-05T05:53:58.969Z,9.77
2022-08-05T05:56:31.672Z,9.20
2022-08-05T05:59:03.624Z,10.52
2022-08-05T06:01:37.877Z,8.73
2022-08-05T06:04:12.211Z,9.88
2022-08-05T06:06:42.047Z,9.30
2022-08-05T06:09:17.429Z,9.68
2022-08-05T06:12:01.474Z,9.18
2022-08-05T06:14:30.494Z,9.45
2022-08-05T06:17:02.014Z,9.00
2022-08-05T06:19:56.807Z,9.10
2022-08-05T06:22:29.564Z,9.40
2022-08-05T06:24:57.852Z,9.68
2022-08-05T06:28:11.107Z,10.05
2022-08-05T06:30:20.073Z,9.57
2022-08-05T06:32:50.797Z,9.80
2022-08-05T06:36:02.947Z,8.80
2022-08-05T06:38:11.324Z,9.02
2022-08-05T06:40:42.263Z,9.82
2022-08-05T06:43:59.084Z,8.70
2022-08-05T06:46:07.277Z,8.27
2022-08-05T06:48:56.131Z,8.40
2022-08-05T06:51:29.808Z,7.75
2022-08-05T06:54:01.864Z,6.60
2022-08-05T06:56:33.330Z,6.25
2022-08-05T06:59:08.339Z,7.45
2022-08-05T07:01:40.807Z,7.10
2022-08-05T07:04:14.041Z,7.07
2022-08-05T07:06:42.337Z,5.60
2022-08-05T07:09:10.568Z,3.60
2022-08-05T07:11:44.601Z,4.18
2022-08-05T07:14:38.886Z,4.65
2022-08-05T07:18:01.164Z,5.13
2022-08-05T07:22:46.081Z,4.47
2022-08-05T07:25:54.757Z,3.97
2022-08-05T07:28:08.346Z,5.10
2022-08-05T07:30:41.562Z,3.60
2022-08-05T07:33:16.242Z,3.55
2022-08-05T07:36:02.809Z,6.05
2022-08-05T07:38:43.349Z,3.63
2022-08-05T07:41:35.167Z,2.17
2022-08-05T07:44:05.887Z,2.03
2022-08-05T07:46:48.239Z,2.80
2022-08-05T07:49:21.062Z,3.35
2022-08-05T07:51:53.829Z,2.00
2022-08-05T07:54:31.207Z,2.45
2022-08-05T07:57:41.801Z,4.75
2022-08-05T07:59:53.823Z,5.50
2022-08-05T08:02:31.255Z,2.60
2022-08-05T08:05:18.797Z,3.30
2022-08-05T08:08:00.215Z,2.22
2022-08-05T08:10:29.206Z,1.67
2022-08-05T08:12:58.839Z,3.13
2022-08-05T08:15:37.263Z,5.95
2022-08-05T08:18:20.970Z,6.88
2022-08-05T08:21:02.897Z,6.15
2022-08-05T08:24:01.605Z,4.97
2022-08-05T08:26:27.064Z,2.55
2022-08-05T08:29:21.949Z,8.88
2022-08-05T08:31:48.324Z,2.80
2022-08-05T08:34:18.731Z,4.43
2022-08-05T08:37:03.235Z,3.25
2022-08-05T08:39:37.806Z,2.13
2022-08-05T08:42:22.515Z,3.70
2022-08-05T08:45:24.221Z,1.67
2022-08-05T08:48:12.739Z,3.45
2022-08-05T08:51:07.649Z,3.58
2022-08-05T08:53:30.726Z,4.45
2022-08-05T08:56:04.788Z,2.97
2022-08-05T08:58:43.155Z,3.25
2022-08-05T09:01:17.920Z,2.40
2022-08-05T09:03:47.562Z,4.45
2022-08-05T09:06:21.006Z,6.15
2022-08-05T09:08:49.561Z,4.95
2022-08-05T09:11:19.432Z,2.28
2022-08-05T09:14:54.324Z,1.85
2022-08-05T09:16:58.838Z,3.20
2022-08-05T09:19:36.315Z,1.83
2022-08-05T09:22:23.267Z,4.32
2022-08-05T09:25:00.565Z,1.50
2022-08-05T09:28:03.800Z,4.22
2022-08-05T09:30:23.638Z,3.05
2022-08-05T09:32:53.511Z,3.97
2022-08-05T09:35:27.197Z,2.72
2022-08-05T09:38:12.453Z,3.30
2022-08-05T09:40:53.939Z,3.95
2022-08-05T09:43:40.774Z,3.03
2022-08-05T09:46:28.218Z,2.35
2022-08-05T09:49:08.094Z,2.17
2022-08-05T09:51:48.893Z,2.72
2022-08-05T09:54:32.426Z,4.15
2022-08-05T09:57:01.554Z,2.40
2022-08-05T09:59:35.099Z,3.17
2022-08-05T10:02:07.249Z,3.83
2022-08-05T10:04:41.102Z,1.85
2022-08-05T10:07:21.001Z,4.93
2022-08-05T10:10:14.639Z,5.07
2022-08-05T10:12:49.708Z,1.02
2022-08-05T10:15:22.281Z,1.73
2022-08-05T10:18:06.599Z,1.45
2022-08-05T10:20:37.355Z,1.52
2022-08-05T10:23:08.918Z,1.48
2022-08-05T10:25:55.672Z,1.90
2022-08-05T10:28:29.214Z,3.08
2022-08-05T10:32:49.031Z,2.22
2022-08-05T10:33:54.007Z,2.92
2022-08-05T10:36:26.075Z,2.58
2022-08-05T10:39:00.659Z,1.95
2022-08-05T10:41:45.200Z,1.70
2022-08-05T10:44:24.356Z,3.17
2022-08-05T10:46:55.244Z,3.63
2022-08-05T10:49:33.082Z,3.60
2022-08-05T10:52:05.574Z,2.03
2022-08-05T10:54:56.083Z,1.77
2022-08-05T10:57:32.267Z,2.80
2022-08-05T11:00:20.877Z,3.35
2022-08-05T11:03:25.082Z,3.05
2022-08-05T11:06:05.762Z,3.90
2022-08-05T11:08:39.224Z,2.83
2022-08-05T11:11:53.327Z,2.80
2022-08-05T11:14:57.628Z,3.60
2022-08-05T11:17:59.486Z,2.17
2022-08-05T11:20:44.620Z,2.90
2022-08-05T11:24:02.867Z,1.83
2022-08-05T11:26:33.500Z,4.57
2022-08-05T11:29:12.700Z,3.60
2022-08-05T11:31:57.500Z,3.05
2022-08-05T11:34:50.807Z,2.50
2022-08-05T11:38:26.490Z,4.18
2022-08-05T11:41:35.578Z,2.25
2022-08-05T11:44:06.292Z,3.45
2022-08-05T11:47:09.597Z,2.70
2022-08-05T11:49:34.107Z,2.50
2022-08-05T11:52:11.399Z,3.33
2022-08-05T11:54:41.702Z,1.30
2022-08-05T11:57:25.302Z,3.17
2022-08-05T11:59:54.938Z,2.38
2022-08-05T12:02:32.939Z,1.13
2022-08-05T12:05:06.828Z,2.97
2022-08-05T12:08:03.823Z,4.90
2022-08-05T12:10:42.970Z,2.10
2022-08-05T12:13:27.987Z,3.17
2022-08-05T12:16:14.722Z,1.30
2022-08-05T12:18:49.033Z,2.45
2022-08-05T12:21:26.741Z,2.05
2022-08-05T12:24:07.250Z,1.75
2022-08-05T12:26:37.839Z,2.42
2022-08-05T12:29:09.884Z,3.40
2022-08-05T12:31:53.828Z,1.75
2022-08-05T12:34:28.703Z,3.60
2022-08-05T12:37:04.137Z,1.13
2022-08-05T12:39:38.804Z,3.15
2022-08-05T12:42:15.318Z,3.53
2022-08-05T12:44:44.861Z,3.35
2022-08-05T12:47:28.555Z,2.58
2022-08-05T12:50:03.507Z,6.15
2022-08-05T12:52:39.663Z,2.97
2022-08-05T12:55:25.194Z,0.98
2022-08-05T12:58:52.494Z,1.30
2022-08-05T13:02:03.769Z,2.58
2022-08-05T13:03:39.078Z,2.80
2022-08-05T13:06:16.007Z,2.33
2022-08-05T13:08:52.654Z,3.58
2022-08-05T13:11:59.844Z,2.92
2022-08-05T13:14:19.663Z,4.18
2022-08-05T13:16:56.595Z,2.83
2022-08-05T13:19:26.866Z,3.13
2022-08-05T13:22:28.351Z,2.20
2022-08-05T13:25:05.502Z,1.40
2022-08-05T13:27:39.087Z,3.28
2022-08-05T13:30:34.712Z,5.72
2022-08-05T13:33:02.850Z,1.75
2022-08-05T13:35:42.734Z,6.10
2022-08-05T13:38:28.010Z,7.53
2022-08-05T13:41:04.385Z,4.15
2022-08-05T13:43:44.130Z,3.15
2022-08-05T13:46:30.726Z,2.80
2022-08-05T13:49:10.420Z,6.63
2022-08-05T13:51:41.387Z,4.97
2022-08-05T13:54:15.490Z,3.35
2022-08-05T13:56:50.850Z,5.03
2022-08-05T13:59:24.069Z,3.40
2022-08-05T14:01:57.716Z,6.32
2022-08-05T14:04:49.827Z,4.03
2022-08-05T14:07:55.437Z,3.97
2022-08-05T14:10:10.782Z,3.85
2022-08-05T14:12:42.789Z,3.83
2022-08-05T14:16:08.238Z,4.03
2022-08-05T14:18:14.767Z,3.28
2022-08-05T14:20:47.311Z,3.67
2022-08-05T14:23:19.097Z,4.72
2022-08-05T14:25:54.234Z,2.75
2022-08-05T14:28:26.536Z,10.52
2022-08-05T14:30:55.722Z,5.28
2022-08-05T14:33:24.512Z,3.42
2022-08-05T14:35:54.493Z,4.22
2022-08-05T14:38:32.484Z,7.22
2022-08-05T14:41:09.514Z,4.07
2022-08-05T14:44:02.575Z,4.57
2022-08-05T14:46:30.823Z,3.08
2022-08-05T14:49:03.500Z,4.70
2022-08-05T14:51:37.687Z,3.03
2022-08-05T14:54:26.079Z,4.85
2022-08-05T14:56:54.934Z,4.55
2022-08-05T14:59:24.976Z,3.50
2022-08-05T15:01:58.164Z,2.78
2022-08-05T15:04:27.395Z,4.32
2022-08-05T15:06:57.422Z,4.25
2022-08-05T15:09:51.919Z,6.15
2022-08-05T15:12:16.868Z,4.40
2022-08-05T15:14:50.590Z,6.32
2022-08-05T15:17:46.059Z,3.58
2022-08-05T15:20:18.901Z,4.38
2022-08-05T15:22:54.237Z,6.75
2022-08-05T15:25:51.060Z,6.18
2022-08-05T15:28:15.000Z,3.67
2022-08-05T15:30:45.731Z,6.30
2022-08-05T15:34:05.291Z,6.18
2022-08-05T15:36:04.998Z,8.18
2022-08-05T15:38:40.922Z,6.68
2022-08-05T15:41:22.211Z,5.00
2022-08-05T15:43:55.076Z,4.82
2022-08-05T15:46:25.502Z,6.13
2022-08-05T15:49:00.841Z,5.63
2022-08-05T15:52:03.650Z,6.45
2022-08-05T15:54:35.148Z,5.03
2022-08-05T15:57:07.342Z,5.10
2022-08-05T15:59:36.349Z,5.53
2022-08-05T16:02:09.596Z,4.25
2022-08-05T16:04:43.501Z,5.38
2022-08-05T16:07:17.108Z,3.75
2022-08-05T16:09:49.823Z,7.63
2022-08-05T16:12:19.941Z,4.47
2022-08-05T16:14:48.064Z,8.23
2022-08-05T16:17:18.752Z,5.78
2022-08-05T16:20:05.658Z,5.97
2022-08-05T16:22:37.443Z,6.85
2022-08-05T16:25:09.698Z,5.07
2022-08-05T16:27:59.790Z,5.53
2022-08-05T16:30:30.823Z,7.35
2022-08-05T16:33:02.951Z,5.82
2022-08-05T16:35:32.606Z,4.22
2022-08-05T16:38:23.693Z,5.65
2022-08-05T16:40:55.802Z,3.50
2022-08-05T16:43:30.880Z,6.60
2022-08-05T16:46:05.192Z,8.23
2022-08-05T16:48:40.979Z,3.65
2022-08-05T16:51:10.734Z,6.03
2022-08-05T16:54:05.992Z,5.28
2022-08-05T16:56:31.611Z,4.47
2022-08-05T16:59:01.881Z,5.13
2022-08-05T17:01:54.084Z,6.07
2022-08-05T17:04:27.444Z,9.80
2022-08-05T17:06:57.017Z,8.55
2022-08-05T17:09:29.557Z,8.32
2022-08-05T17:11:59.689Z,9.82
2022-08-05T17:14:36.785Z,8.38
2022-08-05T17:17:09.388Z,10.48
2022-08-05T17:19:46.202Z,6.78
2022-08-05T17:22:24.998Z,6.88
2022-08-05T17:24:58.207Z,4.50
2022-08-05T17:27:33.839Z,6.75
2022-08-05T17:30:03.886Z,7.68
2022-08-05T17:32:42.204Z,6.63
2022-08-05T17:35:15.578Z,6.55
2022-08-05T17:37:53.537Z,4.25
2022-08-05T17:40:29.372Z,5.22
2022-08-05T17:42:59.998Z,6.30
2022-08-05T17:45:37.913Z,8.00
2022-08-05T17:48:08.261Z,6.03
2022-08-05T17:50:39.040Z,5.30
2022-08-05T17:53:08.669Z,7.20
2022-08-05T17:55:39.671Z,6.35
2022-08-05T17:58:12.287Z,6.78
2022-08-05T18:00:44.616Z,6.32
2022-08-05T18:03:58.663Z,4.72
2022-08-05T18:06:15.470Z,6.78
2022-08-05T18:08:52.072Z,6.13
2022-08-05T18:11:32.989Z,7.97
2022-08-05T18:14:07.490Z,6.97
2022-08-05T18:16:51.123Z,6.57
2022-08-05T18:19:26.042Z,5.68
2022-08-05T18:22:08.832Z,5.28
2022-08-05T18:24:40.109Z,6.30
2022-08-05T18:27:18.972Z,6.30
2022-08-05T18:29:54.331Z,7.93
2022-08-05T18:32:27.730Z,3.92
2022-08-05T18:34:57.908Z,7.40
2022-08-05T18:37:34.415Z,4.40
2022-08-05T18:41:50.239Z,8.48
2022-08-05T18:43:08.916Z,7.95
2022-08-05T18:45:44.789Z,3.92
2022-08-05T18:48:17.569Z,5.68
2022-08-05T18:52:03.211Z,4.63
2022-08-05T18:54:09.105Z,5.90
2022-08-05T18:56:41.509Z,5.47
2022-08-05T18:59:44.200Z,6.68
2022-08-05T19:02:27.524Z,5.13
2022-08-05T19:06:06.103Z,5.82
2022-08-05T19:07:55.482Z,3.60
2022-08-05T19:10:26.676Z,7.68
2022-08-05T19:12:57.631Z,8.73
2022-08-05T19:15:57.844Z,5.85
2022-08-05T19:18:21.789Z,9.80
2022-08-05T19:20:53.205Z,4.50
2022-08-05T19:23:22.698Z,7.22
2022-08-05T19:26:16.736Z,7.28
2022-08-05T19:28:45.394Z,5.85
2022-08-05T19:31:18.004Z,7.35
2022-08-05T19:33:56.946Z,9.27
2022-08-05T19:36:26.236Z,6.78
2022-08-05T19:39:01.046Z,5.13
2022-08-05T19:42:06.999Z,6.43
2022-08-05T19:44:32.041Z,6.88
2022-08-05T19:47:02.745Z,6.63
2022-08-05T19:49:32.217Z,5.82
2022-08-05T19:52:08.924Z,5.43
2022-08-05T19:54:51.493Z,6.18
2022-08-05T19:57:48.937Z,9.20
2022-08-05T20:00:14.805Z,8.70
2022-08-05T20:02:42.971Z,4.40
2022-08-05T20:05:16.592Z,3.80
2022-08-05T20:07:57.717Z,5.13
2022-08-05T20:10:27.716Z,7.88
2022-08-05T20:13:00.497Z,11.25
2022-08-05T20:15:52.134Z,9.93
2022-08-05T20:18:33.806Z,8.57
2022-08-05T20:21:05.244Z,7.40
2022-08-05T20:23:39.873Z,5.95
2022-08-05T20:26:19.046Z,9.95
2022-08-05T20:28:53.942Z,4.95
2022-08-05T20:31:37.083Z,6.35
2022-08-05T20:34:12.675Z,3.50
2022-08-05T20:36:43.389Z,9.32
2022-08-05T20:39:13.347Z,7.28
2022-08-05T20:41:46.725Z,5.63
2022-08-05T20:44:29.891Z,6.78
2022-08-05T20:47:00.682Z,2.67
2022-08-05T20:49:29.238Z,5.93
2022-08-05T20:52:00.706Z,5.22
2022-08-05T20:54:59.198Z,7.25
2022-08-05T20:57:42.337Z,3.65
2022-08-05T21:00:40.764Z,7.93
2022-08-05T21:03:07.440Z,7.28
2022-08-05T21:05:53.843Z,4.72
2022-08-05T21:08:28.005Z,7.53
2022-08-05T21:12:09.282Z,6.88
2022-08-05T21:14:08.734Z,6.85
2022-08-05T21:16:43.798Z,7.85
2022-08-05T21:19:12.549Z,7.57
2022-08-05T21:21:44.342Z,5.63
2022-08-05T21:24:20.062Z,9.55
2022-08-05T21:26:57.942Z,8.88
2022-08-05T21:29:31.758Z,5.47
2022-08-05T21:32:03.361Z,7.80
2022-08-05T21:34:32.943Z,9.13
2022-08-05T21:37:04.690Z,5.53
2022-08-05T21:39:34.635Z,8.73
2022-08-05T21:42:30.619Z,6.82
2022-08-05T21:45:01.941Z,5.10
2022-08-05T21:47:54.813Z,8.30
2022-08-05T21:50:20.034Z,8.57
2022-08-05T21:52:50.359Z,5.72
2022-08-05T21:55:42.932Z,5.00
2022-08-05T21:58:12.784Z,7.93
2022-08-05T22:00:41.318Z,7.45
2022-08-05T22:03:51.799Z,8.18
2022-08-05T22:06:09.386Z,6.82
2022-08-05T22:08:37.470Z,5.50
2022-08-05T22:11:15.551Z,7.28
2022-08-05T22:14:05.594Z,6.38
2022-08-05T22:16:51.889Z,6.30
2022-08-05T22:20:01.700Z,6.05
2022-08-05T22:22:10.808Z,5.43
2022-08-05T22:24:57.890Z,7.22
2022-08-05T22:28:09.564Z,10.68
2022-08-05T22:30:36.040Z,6.68
2022-08-05T22:33:04.441Z,5.43
2022-08-05T22:35:48.641Z,4.15
2022-08-05T22:38:19.631Z,5.00
2022-08-05T22:40:54.861Z,5.38
2022-08-05T22:43:36.631Z,6.88
2022-08-05T22:46:13.035Z,7.88
2022-08-05T22:48:42.312Z,6.57
2022-08-05T22:51:22.376Z,10.30
2022-08-05T22:53:51.947Z,8.68
2022-08-05T22:56:30.292Z,5.80
2022-08-05T22:59:03.955Z,4.07
2022-08-05T23:02:05.003Z,7.28
2022-08-05T23:04:36.097Z,4.57
2022-08-05T23:07:08.503Z,7.90
2022-08-05T23:09:57.556Z,8.00
2022-08-05T23:12:25.247Z,6.90
2022-08-05T23:14:56.821Z,7.57
2022-08-05T23:17:34.737Z,6.75
2022-08-05T23:20:10.536Z,11.48
2022-08-05T23:22:48.533Z,14.60
2022-08-05T23:25:51.551Z,16.13
2022-08-05T23:28:07.745Z,17.45
2022-08-05T23:30:39.569Z,17.05
2022-08-05T23:33:22.604Z,11.05
2022-08-05T23:35:55.953Z,10.45
2022-08-05T23:38:26.860Z,9.60
2022-08-05T23:40:55.125Z,13.20
2022-08-05T23:43:36.955Z,15.70
2022-08-05T23:46:20.677Z,10.57
2022-08-05T23:48:59.773Z,10.82
2022-08-05T23:51:52.920Z,8.07
2022-08-05T23:54:25.068Z,8.63
2022-08-05T23:56:55.140Z,10.45
2022-08-05T23:59:27.532Z,15.93
